sensor_id;sensor_type;location;lat;lon;timestamp;temperature;humidity
429;DHT22;201;48.758;9.290;2023-02-03T00:00:16;5.70;6.00
429;DHT22;201;48.758;9.290;2023-02-03T00:02:42;5.60;6.00
429;DHT22;201;48.758;9.290;2023-02-03T00:05:08;5.60;6.20
429;DHT22;201;48.758;9.290;2023-02-03T00:07:33;5.60;6.30
429;DHT22;201;48.758;9.290;2023-02-03T00:10:01;5.60;6.70
429;DHT22;201;48.758;9.290;2023-02-03T00:12:27;5.60;6.40
429;DHT22;201;48.758;9.290;2023-02-03T00:14:53;5.50;6.30
429;DHT22;201;48.758;9.290;2023-02-03T00:17:18;5.60;6.50
429;DHT22;201;48.758;9.290;2023-02-03T00:19:44;5.60;6.70
429;DHT22;201;48.758;9.290;2023-02-03T00:22:09;5.60;6.40
429;DHT22;201;48.758;9.290;2023-02-03T00:24:35;5.60;6.20
429;DHT22;201;48.758;9.290;2023-02-03T00:27:01;5.50;6.20
429;DHT22;201;48.758;9.290;2023-02-03T00:29:29;5.50;6.30
429;DHT22;201;48.758;9.290;2023-02-03T00:31:54;5.50;6.30
429;DHT22;201;48.758;9.290;2023-02-03T00:34:20;5.50;6.40
429;DHT22;201;48.758;9.290;2023-02-03T00:36:46;5.60;6.50
429;DHT22;201;48.758;9.290;2023-02-03T00:39:13;5.60;6.10
429;DHT22;201;48.758;9.290;2023-02-03T00:41:39;5.60;6.60
429;DHT22;201;48.758;9.290;2023-02-03T00:44:05;5.60;5.90
429;DHT22;201;48.758;9.290;2023-02-03T00:46:31;5.60;6.10
429;DHT22;201;48.758;9.290;2023-02-03T00:48:56;5.70;6.20
429;DHT22;201;48.758;9.290;2023-02-03T00:51:22;5.70;5.90
429;DHT22;201;48.758;9.290;2023-02-03T00:53:48;5.70;5.70
429;DHT22;201;48.758;9.290;2023-02-03T00:56:14;5.70;5.70
429;DHT22;201;48.758;9.290;2023-02-03T00:58:39;5.70;5.90
429;DHT22;201;48.758;9.290;2023-02-03T01:01:05;5.70;6.00
429;DHT22;201;48.758;9.290;2023-02-03T01:03:31;5.70;6.00
429;DHT22;201;48.758;9.290;2023-02-03T01:06:18;5.60;5.90
429;DHT22;201;48.758;9.290;2023-02-03T01:08:44;5.60;6.40
429;DHT22;201;48.758;9.290;2023-02-03T01:11:13;5.60;6.10
429;DHT22;201;48.758;9.290;2023-02-03T01:13:43;5.60;6.10
429;DHT22;201;48.758;9.290;2023-02-03T01:16:11;5.60;6.10
429;DHT22;201;48.758;9.290;2023-02-03T01:18:37;5.60;6.40
429;DHT22;201;48.758;9.290;2023-02-03T01:21:09;5.50;6.40
429;DHT22;201;48.758;9.290;2023-02-03T01:23:36;5.50;6.60
429;DHT22;201;48.758;9.290;2023-02-03T01:26:07;5.50;6.50
429;DHT22;201;48.758;9.290;2023-02-03T01:28:33;5.40;7.20
429;DHT22;201;48.758;9.290;2023-02-03T01:31:08;5.40;7.10
429;DHT22;201;48.758;9.290;2023-02-03T01:33:34;5.40;7.10
429;DHT22;201;48.758;9.290;2023-02-03T01:36:00;5.40;7.10
429;DHT22;201;48.758;9.290;2023-02-03T01:38:26;5.30;7.10
429;DHT22;201;48.758;9.290;2023-02-03T01:40:52;5.30;7.10
429;DHT22;201;48.758;9.290;2023-02-03T01:43:38;5.30;7.10
429;DHT22;201;48.758;9.290;2023-02-03T01:46:24;5.30;7.10
429;DHT22;201;48.758;9.290;2023-02-03T01:48:53;5.20;7.00
429;DHT22;201;48.758;9.290;2023-02-03T01:51:20;5.20;7.00
429;DHT22;201;48.758;9.290;2023-02-03T01:53:47;5.20;7.40
429;DHT22;201;48.758;9.290;2023-02-03T01:56:13;5.20;7.00
429;DHT22;201;48.758;9.290;2023-02-03T01:58:40;5.20;7.20
429;DHT22;201;48.758;9.290;2023-02-03T02:01:06;5.20;7.40
429;DHT22;201;48.758;9.290;2023-02-03T02:03:41;5.30;7.70
429;DHT22;201;48.758;9.290;2023-02-03T02:06:10;5.20;7.50
429;DHT22;201;48.758;9.290;2023-02-03T02:08:37;5.30;7.80
429;DHT22;201;48.758;9.290;2023-02-03T02:11:05;5.30;7.80
429;DHT22;201;48.758;9.290;2023-02-03T02:13:32;5.30;7.90
429;DHT22;201;48.758;9.290;2023-02-03T02:16:26;5.30;7.80
429;DHT22;201;48.758;9.290;2023-02-03T02:22:50;5.30;8.30
429;DHT22;201;48.758;9.290;2023-02-03T02:31:41;5.20;8.20
429;DHT22;201;48.758;9.290;2023-02-03T02:34:19;5.20;8.30
429;DHT22;201;48.758;9.290;2023-02-03T02:42:33;5.20;8.90
429;DHT22;201;48.758;9.290;2023-02-03T02:45:13;5.20;8.80
429;DHT22;201;48.758;9.290;2023-02-03T02:47:39;5.20;8.80
429;DHT22;201;48.758;9.290;2023-02-03T02:50:17;5.10;9.00
429;DHT22;201;48.758;9.290;2023-02-03T02:52:45;5.00;9.90
429;DHT22;201;48.758;9.290;2023-02-03T02:55:30;5.00;9.70
429;DHT22;201;48.758;9.290;2023-02-03T02:58:10;4.90;10.20
429;DHT22;201;48.758;9.290;2023-02-03T03:00:37;4.90;10.20
429;DHT22;201;48.758;9.290;2023-02-03T03:03:19;4.90;10.50
429;DHT22;201;48.758;9.290;2023-02-03T03:05:50;4.90;10.70
429;DHT22;201;48.758;9.290;2023-02-03T03:08:27;5.00;10.60
429;DHT22;201;48.758;9.290;2023-02-03T03:10:56;5.00;10.50
429;DHT22;201;48.758;9.290;2023-02-03T03:13:26;5.10;10.30
429;DHT22;201;48.758;9.290;2023-02-03T03:15:55;5.10;10.10
429;DHT22;201;48.758;9.290;2023-02-03T03:18:26;5.10;10.10
429;DHT22;201;48.758;9.290;2023-02-03T03:20:55;5.10;10.10
429;DHT22;201;48.758;9.290;2023-02-03T03:23:28;5.10;10.10
429;DHT22;201;48.758;9.290;2023-02-03T03:26:03;5.10;10.10
429;DHT22;201;48.758;9.290;2023-02-03T03:31:26;5.10;10.10
429;DHT22;201;48.758;9.290;2023-02-03T03:33:52;5.10;10.10
429;DHT22;201;48.758;9.290;2023-02-03T03:36:26;5.10;10.20
429;DHT22;201;48.758;9.290;2023-02-03T03:39:02;5.10;10.20
429;DHT22;201;48.758;9.290;2023-02-03T03:41:35;5.10;10.10
429;DHT22;201;48.758;9.290;2023-02-03T03:44:04;5.10;10.00
429;DHT22;201;48.758;9.290;2023-02-03T03:46:41;5.10;10.00
429;DHT22;201;48.758;9.290;2023-02-03T03:49:09;5.10;10.10
429;DHT22;201;48.758;9.290;2023-02-03T03:51:40;5.10;10.10
429;DHT22;201;48.758;9.290;2023-02-03T03:54:08;5.10;9.90
429;DHT22;201;48.758;9.290;2023-02-03T03:56:57;5.10;9.90
429;DHT22;201;48.758;9.290;2023-02-03T03:59:24;5.10;9.80
429;DHT22;201;48.758;9.290;2023-02-03T04:01:52;5.10;9.60
429;DHT22;201;48.758;9.290;2023-02-03T04:04:18;5.10;9.60
429;DHT22;201;48.758;9.290;2023-02-03T04:06:45;5.20;9.40
429;DHT22;201;48.758;9.290;2023-02-03T04:09:10;5.20;9.50
429;DHT22;201;48.758;9.290;2023-02-03T04:11:36;5.20;9.70
429;DHT22;201;48.758;9.290;2023-02-03T04:14:20;5.20;9.60
429;DHT22;201;48.758;9.290;2023-02-03T04:16:46;5.20;9.80
429;DHT22;201;48.758;9.290;2023-02-03T04:19:11;5.20;10.10
429;DHT22;201;48.758;9.290;2023-02-03T04:21:36;5.10;10.10
429;DHT22;201;48.758;9.290;2023-02-03T04:24:02;5.10;10.50
429;DHT22;201;48.758;9.290;2023-02-03T04:26:28;5.10;10.50
429;DHT22;201;48.758;9.290;2023-02-03T04:28:53;5.10;10.60
429;DHT22;201;48.758;9.290;2023-02-03T04:31:19;5.10;10.70
429;DHT22;201;48.758;9.290;2023-02-03T04:33:44;5.10;11.00
429;DHT22;201;48.758;9.290;2023-02-03T04:36:10;5.10;11.20
429;DHT22;201;48.758;9.290;2023-02-03T04:38:35;5.10;11.90
429;DHT22;201;48.758;9.290;2023-02-03T04:41:01;5.10;12.40
429;DHT22;201;48.758;9.290;2023-02-03T04:43:26;5.00;12.40
429;DHT22;201;48.758;9.290;2023-02-03T04:45:52;5.00;12.70
429;DHT22;201;48.758;9.290;2023-02-03T04:48:17;4.90;12.90
429;DHT22;201;48.758;9.290;2023-02-03T04:50:43;4.90;13.20
429;DHT22;201;48.758;9.290;2023-02-03T04:53:08;4.90;13.50
429;DHT22;201;48.758;9.290;2023-02-03T04:55:33;4.90;13.80
429;DHT22;201;48.758;9.290;2023-02-03T04:58:00;4.90;13.90
429;DHT22;201;48.758;9.290;2023-02-03T05:00:26;4.90;14.30
429;DHT22;201;48.758;9.290;2023-02-03T05:02:52;4.80;15.20
429;DHT22;201;48.758;9.290;2023-02-03T05:05:18;4.80;15.30
429;DHT22;201;48.758;9.290;2023-02-03T05:07:43;4.80;15.20
429;DHT22;201;48.758;9.290;2023-02-03T05:10:09;4.80;15.20
429;DHT22;201;48.758;9.290;2023-02-03T05:12:35;4.70;15.40
429;DHT22;201;48.758;9.290;2023-02-03T05:15:01;4.70;15.90
429;DHT22;201;48.758;9.290;2023-02-03T05:17:26;4.70;16.30
429;DHT22;201;48.758;9.290;2023-02-03T05:19:52;4.70;16.20
429;DHT22;201;48.758;9.290;2023-02-03T05:22:17;4.70;16.30
429;DHT22;201;48.758;9.290;2023-02-03T05:24:42;4.70;16.40
429;DHT22;201;48.758;9.290;2023-02-03T05:27:08;4.70;16.30
429;DHT22;201;48.758;9.290;2023-02-03T05:29:34;4.80;16.00
429;DHT22;201;48.758;9.290;2023-02-03T05:31:59;4.80;16.10
429;DHT22;201;48.758;9.290;2023-02-03T05:34:25;4.80;15.70
429;DHT22;201;48.758;9.290;2023-02-03T05:36:50;4.80;15.90
429;DHT22;201;48.758;9.290;2023-02-03T05:39:16;4.90;16.10
429;DHT22;201;48.758;9.290;2023-02-03T05:41:41;4.80;15.90
429;DHT22;201;48.758;9.290;2023-02-03T05:44:23;4.90;16.10
429;DHT22;201;48.758;9.290;2023-02-03T05:46:51;4.90;16.10
429;DHT22;201;48.758;9.290;2023-02-03T05:49:17;4.90;16.10
429;DHT22;201;48.758;9.290;2023-02-03T05:51:44;4.90;16.00
429;DHT22;201;48.758;9.290;2023-02-03T05:54:10;4.90;15.30
429;DHT22;201;48.758;9.290;2023-02-03T05:56:36;4.80;15.30
429;DHT22;201;48.758;9.290;2023-02-03T05:59:02;4.80;15.30
429;DHT22;201;48.758;9.290;2023-02-03T06:01:28;4.80;15.20
429;DHT22;201;48.758;9.290;2023-02-03T06:03:54;4.80;15.20
429;DHT22;201;48.758;9.290;2023-02-03T06:06:19;4.80;15.20
429;DHT22;201;48.758;9.290;2023-02-03T06:08:45;4.80;15.20
429;DHT22;201;48.758;9.290;2023-02-03T06:11:11;4.80;15.30
429;DHT22;201;48.758;9.290;2023-02-03T06:13:36;4.90;15.30
429;DHT22;201;48.758;9.290;2023-02-03T06:16:02;4.90;15.30
429;DHT22;201;48.758;9.290;2023-02-03T06:18:28;4.90;15.30
429;DHT22;201;48.758;9.290;2023-02-03T06:20:54;4.90;15.30
429;DHT22;201;48.758;9.290;2023-02-03T06:23:19;4.90;15.30
429;DHT22;201;48.758;9.290;2023-02-03T06:25:48;4.90;15.30
429;DHT22;201;48.758;9.290;2023-02-03T06:28:13;4.80;15.20
429;DHT22;201;48.758;9.290;2023-02-03T06:30:39;4.90;14.70
429;DHT22;201;48.758;9.290;2023-02-03T06:33:05;4.90;13.90
429;DHT22;201;48.758;9.290;2023-02-03T06:35:30;4.90;14.30
429;DHT22;201;48.758;9.290;2023-02-03T06:37:56;4.90;14.10
429;DHT22;201;48.758;9.290;2023-02-03T06:40:21;4.90;13.90
429;DHT22;201;48.758;9.290;2023-02-03T06:42:47;4.90;13.80
429;DHT22;201;48.758;9.290;2023-02-03T06:45:15;4.90;13.90
429;DHT22;201;48.758;9.290;2023-02-03T06:47:42;5.00;14.10
429;DHT22;201;48.758;9.290;2023-02-03T06:50:15;4.90;14.00
429;DHT22;201;48.758;9.290;2023-02-03T06:52:40;4.90;14.50
429;DHT22;201;48.758;9.290;2023-02-03T06:55:06;4.80;14.40
429;DHT22;201;48.758;9.290;2023-02-03T06:57:32;4.80;14.70
429;DHT22;201;48.758;9.290;2023-02-03T06:59:58;4.80;14.90
429;DHT22;201;48.758;9.290;2023-02-03T07:02:23;4.70;15.20
429;DHT22;201;48.758;9.290;2023-02-03T07:04:49;4.70;15.20
429;DHT22;201;48.758;9.290;2023-02-03T07:07:14;4.70;14.80
429;DHT22;201;48.758;9.290;2023-02-03T07:09:40;4.70;14.70
429;DHT22;201;48.758;9.290;2023-02-03T07:12:07;4.70;14.50
429;DHT22;201;48.758;9.290;2023-02-03T07:14:33;4.70;14.70
429;DHT22;201;48.758;9.290;2023-02-03T07:17:03;4.90;16.70
429;DHT22;201;48.758;9.290;2023-02-03T07:19:29;4.80;14.20
429;DHT22;201;48.758;9.290;2023-02-03T07:21:54;4.80;15.20
429;DHT22;201;48.758;9.290;2023-02-03T07:24:20;4.80;14.80
429;DHT22;201;48.758;9.290;2023-02-03T07:26:45;4.70;14.80
429;DHT22;201;48.758;9.290;2023-02-03T07:29:11;4.70;15.20
429;DHT22;201;48.758;9.290;2023-02-03T07:31:36;4.70;15.20
429;DHT22;201;48.758;9.290;2023-02-03T07:34:03;4.70;15.00
429;DHT22;201;48.758;9.290;2023-02-03T07:36:29;4.70;14.70
429;DHT22;201;48.758;9.290;2023-02-03T07:38:54;4.70;14.50
429;DHT22;201;48.758;9.290;2023-02-03T07:41:20;4.70;14.80
429;DHT22;201;48.758;9.290;2023-02-03T07:43:46;4.60;14.90
429;DHT22;201;48.758;9.290;2023-02-03T07:46:12;4.60;15.10
429;DHT22;201;48.758;9.290;2023-02-03T07:48:37;4.70;15.20
429;DHT22;201;48.758;9.290;2023-02-03T07:51:03;4.70;15.20
429;DHT22;201;48.758;9.290;2023-02-03T07:53:29;4.60;15.10
429;DHT22;201;48.758;9.290;2023-02-03T07:55:58;4.70;15.20
429;DHT22;201;48.758;9.290;2023-02-03T07:58:24;4.70;15.20
429;DHT22;201;48.758;9.290;2023-02-03T08:00:49;4.70;15.20
429;DHT22;201;48.758;9.290;2023-02-03T08:03:15;4.70;15.20
429;DHT22;201;48.758;9.290;2023-02-03T08:05:40;4.80;15.30
429;DHT22;201;48.758;9.290;2023-02-03T08:08:06;4.80;15.20
429;DHT22;201;48.758;9.290;2023-02-03T08:10:31;4.80;15.20
429;DHT22;201;48.758;9.290;2023-02-03T08:12:57;4.90;14.80
429;DHT22;201;48.758;9.290;2023-02-03T08:15:23;4.90;14.60
429;DHT22;201;48.758;9.290;2023-02-03T08:17:49;5.00;14.20
429;DHT22;201;48.758;9.290;2023-02-03T08:20:14;5.00;14.10
429;DHT22;201;48.758;9.290;2023-02-03T08:22:41;5.10;13.60
429;DHT22;201;48.758;9.290;2023-02-03T08:25:07;5.20;13.50
429;DHT22;201;48.758;9.290;2023-02-03T08:27:32;5.20;13.40
429;DHT22;201;48.758;9.290;2023-02-03T08:29:58;5.10;13.80
429;DHT22;201;48.758;9.290;2023-02-03T08:32:24;5.10;14.50
429;DHT22;201;48.758;9.290;2023-02-03T08:34:51;5.10;14.90
429;DHT22;201;48.758;9.290;2023-02-03T08:37:19;5.00;15.10
429;DHT22;201;48.758;9.290;2023-02-03T08:39:45;5.00;15.40
429;DHT22;201;48.758;9.290;2023-02-03T08:42:11;5.00;15.40
429;DHT22;201;48.758;9.290;2023-02-03T08:44:37;5.00;15.40
429;DHT22;201;48.758;9.290;2023-02-03T08:47:06;5.00;15.40
429;DHT22;201;48.758;9.290;2023-02-03T08:49:33;5.00;15.90
429;DHT22;201;48.758;9.290;2023-02-03T08:52:00;5.10;16.00
429;DHT22;201;48.758;9.290;2023-02-03T08:54:26;5.20;16.00
429;DHT22;201;48.758;9.290;2023-02-03T08:56:51;5.30;16.10
429;DHT22;201;48.758;9.290;2023-02-03T08:59:17;5.40;14.80
429;DHT22;201;48.758;9.290;2023-02-03T09:01:43;5.40;13.90
429;DHT22;201;48.758;9.290;2023-02-03T09:04:10;5.40;14.50
429;DHT22;201;48.758;9.290;2023-02-03T09:06:36;5.40;14.80
429;DHT22;201;48.758;9.290;2023-02-03T09:09:02;5.40;14.50
429;DHT22;201;48.758;9.290;2023-02-03T09:11:28;5.50;14.40
429;DHT22;201;48.758;9.290;2023-02-03T09:13:54;5.50;14.80
429;DHT22;201;48.758;9.290;2023-02-03T09:16:21;5.70;14.50
429;DHT22;201;48.758;9.290;2023-02-03T09:18:47;5.70;13.20
429;DHT22;201;48.758;9.290;2023-02-03T09:21:14;5.70;13.50
429;DHT22;201;48.758;9.290;2023-02-03T09:23:41;5.70;13.20
429;DHT22;201;48.758;9.290;2023-02-03T09:26:09;5.70;13.10
429;DHT22;201;48.758;9.290;2023-02-03T09:28:35;5.90;13.50
429;DHT22;201;48.758;9.290;2023-02-03T09:31:06;6.20;13.00
429;DHT22;201;48.758;9.290;2023-02-03T09:33:32;6.30;11.40
429;DHT22;201;48.758;9.290;2023-02-03T09:35:58;6.30;11.30
429;DHT22;201;48.758;9.290;2023-02-03T09:38:24;6.40;11.50
429;DHT22;201;48.758;9.290;2023-02-03T09:40:59;6.50;11.20
429;DHT22;201;48.758;9.290;2023-02-03T09:44:03;6.40;11.00
429;DHT22;201;48.758;9.290;2023-02-03T09:46:38;6.40;12.00
429;DHT22;201;48.758;9.290;2023-02-03T09:51:52;6.70;9.70
429;DHT22;201;48.758;9.290;2023-02-03T09:54:41;6.50;9.50
429;DHT22;201;48.758;9.290;2023-02-03T10:00:26;6.80;10.40
429;DHT22;201;48.758;9.290;2023-02-03T10:06:00;6.50;10.50
429;DHT22;201;48.758;9.290;2023-02-03T10:14:45;6.60;11.10
429;DHT22;201;48.758;9.290;2023-02-03T10:19:50;6.60;10.80
429;DHT22;201;48.758;9.290;2023-02-03T10:22:25;6.70;10.70
429;DHT22;201;48.758;9.290;2023-02-03T10:27:24;6.60;11.40
429;DHT22;201;48.758;9.290;2023-02-03T10:32:31;6.60;11.30
429;DHT22;201;48.758;9.290;2023-02-03T10:34:58;6.50;11.00
429;DHT22;201;48.758;9.290;2023-02-03T10:37:44;6.60;11.20
429;DHT22;201;48.758;9.290;2023-02-03T10:40:15;6.70;11.40
429;DHT22;201;48.758;9.290;2023-02-03T10:42:43;6.60;10.90
429;DHT22;201;48.758;9.290;2023-02-03T10:45:32;6.60;11.20
429;DHT22;201;48.758;9.290;2023-02-03T10:48:00;6.60;11.90
429;DHT22;201;48.758;9.290;2023-02-03T10:50:27;6.60;11.80
429;DHT22;201;48.758;9.290;2023-02-03T10:55:44;6.60;12.20
429;DHT22;201;48.758;9.290;2023-02-03T10:58:15;6.60;11.80
429;DHT22;201;48.758;9.290;2023-02-03T11:00:42;6.60;12.30
429;DHT22;201;48.758;9.290;2023-02-03T11:03:21;6.70;11.50
429;DHT22;201;48.758;9.290;2023-02-03T11:06:09;7.00;11.50
429;DHT22;201;48.758;9.290;2023-02-03T11:08:37;7.00;10.10
429;DHT22;201;48.758;9.290;2023-02-03T11:11:08;7.00;9.60
429;DHT22;201;48.758;9.290;2023-02-03T11:13:34;7.10;9.30
429;DHT22;201;48.758;9.290;2023-02-03T11:16:06;7.00;8.30
429;DHT22;201;48.758;9.290;2023-02-03T11:18:57;6.90;8.50
429;DHT22;201;48.758;9.290;2023-02-03T11:21:28;6.90;9.60
429;DHT22;201;48.758;9.290;2023-02-03T11:26:48;6.90;10.20
429;DHT22;201;48.758;9.290;2023-02-03T11:29:23;6.90;10.60
429;DHT22;201;48.758;9.290;2023-02-03T11:31:51;6.80;10.40
429;DHT22;201;48.758;9.290;2023-02-03T11:34:30;6.80;11.20
429;DHT22;201;48.758;9.290;2023-02-03T11:36:56;6.90;11.60
429;DHT22;201;48.758;9.290;2023-02-03T11:39:29;6.90;11.10
429;DHT22;201;48.758;9.290;2023-02-03T11:42:00;6.90;11.40
429;DHT22;201;48.758;9.290;2023-02-03T11:44:28;7.00;11.70
429;DHT22;201;48.758;9.290;2023-02-03T11:47:01;7.20;11.80
429;DHT22;201;48.758;9.290;2023-02-03T11:50:05;7.20;10.20
429;DHT22;201;48.758;9.290;2023-02-03T11:52:44;7.40;10.30
429;DHT22;201;48.758;9.290;2023-02-03T11:55:26;7.60;8.70
429;DHT22;201;48.758;9.290;2023-02-03T12:00:55;7.60;8.30
429;DHT22;201;48.758;9.290;2023-02-03T12:06:42;7.40;7.00
429;DHT22;201;48.758;9.290;2023-02-03T12:14:59;7.50;8.60
429;DHT22;201;48.758;9.290;2023-02-03T12:17:50;7.40;6.20
429;DHT22;201;48.758;9.290;2023-02-03T12:23:15;7.30;6.80
429;DHT22;201;48.758;9.290;2023-02-03T12:25:59;7.20;6.70
429;DHT22;201;48.758;9.290;2023-02-03T12:28:55;7.20;6.90
429;DHT22;201;48.758;9.290;2023-02-03T12:31:59;7.30;6.30
429;DHT22;201;48.758;9.290;2023-02-03T12:34:34;7.20;5.30
429;DHT22;201;48.758;9.290;2023-02-03T12:37:09;7.20;5.40
429;DHT22;201;48.758;9.290;2023-02-03T12:39:52;7.20;5.20
429;DHT22;201;48.758;9.290;2023-02-03T12:42:31;7.20;5.30
429;DHT22;201;48.758;9.290;2023-02-03T12:45:09;7.10;5.20
429;DHT22;201;48.758;9.290;2023-02-03T12:47:41;7.00;5.30
429;DHT22;201;48.758;9.290;2023-02-03T12:52:57;7.00;6.00
429;DHT22;201;48.758;9.290;2023-02-03T12:58:05;6.90;6.00
429;DHT22;201;48.758;9.290;2023-02-03T13:06:31;6.90;6.10
429;DHT22;201;48.758;9.290;2023-02-03T13:09:30;7.00;6.10
429;DHT22;201;48.758;9.290;2023-02-03T13:12:07;7.00;5.60
429;DHT22;201;48.758;9.290;2023-02-03T13:14:37;7.10;4.50
429;DHT22;201;48.758;9.290;2023-02-03T13:17:10;7.10;4.30
429;DHT22;201;48.758;9.290;2023-02-03T13:19:45;7.20;4.70
429;DHT22;201;48.758;9.290;2023-02-03T13:22:14;7.20;4.50
429;DHT22;201;48.758;9.290;2023-02-03T13:24:47;7.30;4.40
429;DHT22;201;48.758;9.290;2023-02-03T13:30:16;7.40;4.70
429;DHT22;201;48.758;9.290;2023-02-03T13:44:32;7.40;2.40
429;DHT22;201;48.758;9.290;2023-02-03T13:46:59;7.40;1.60
429;DHT22;201;48.758;9.290;2023-02-03T13:49:32;7.40;1.80
429;DHT22;201;48.758;9.290;2023-02-03T13:51:58;7.40;1.80
429;DHT22;201;48.758;9.290;2023-02-03T13:54:36;7.40;2.50
429;DHT22;201;48.758;9.290;2023-02-03T13:57:05;7.40;2.40
429;DHT22;201;48.758;9.290;2023-02-03T13:59:44;7.50;2.30
429;DHT22;201;48.758;9.290;2023-02-03T14:12:38;7.60;1.90
429;DHT22;201;48.758;9.290;2023-02-03T14:15:28;7.50;1.70
429;DHT22;201;48.758;9.290;2023-02-03T14:18:32;7.50;1.70
429;DHT22;201;48.758;9.290;2023-02-03T14:21:17;7.60;2.00
429;DHT22;201;48.758;9.290;2023-02-03T14:23:50;7.60;1.60
429;DHT22;201;48.758;9.290;2023-02-03T14:26:27;7.60;2.20
429;DHT22;201;48.758;9.290;2023-02-03T14:28:53;7.60;1.60
429;DHT22;201;48.758;9.290;2023-02-03T14:31:20;7.60;1.80
429;DHT22;201;48.758;9.290;2023-02-03T14:34:01;7.60;2.20
429;DHT22;201;48.758;9.290;2023-02-03T14:36:33;7.60;1.70
429;DHT22;201;48.758;9.290;2023-02-03T14:45:14;7.60;2.00
429;DHT22;201;48.758;9.290;2023-02-03T14:50:33;7.50;2.40
429;DHT22;201;48.758;9.290;2023-02-03T14:56:08;7.50;2.70
429;DHT22;201;48.758;9.290;2023-02-03T14:58:40;7.40;2.70
429;DHT22;201;48.758;9.290;2023-02-03T15:01:23;7.40;3.10
429;DHT22;201;48.758;9.290;2023-02-03T15:06:45;7.40;3.30
429;DHT22;201;48.758;9.290;2023-02-03T15:09:33;7.30;3.20
429;DHT22;201;48.758;9.290;2023-02-03T15:12:02;7.30;3.90
429;DHT22;201;48.758;9.290;2023-02-03T15:14:29;7.30;3.70
429;DHT22;201;48.758;9.290;2023-02-03T15:17:01;7.30;4.10
429;DHT22;201;48.758;9.290;2023-02-03T15:19:33;7.30;4.10
429;DHT22;201;48.758;9.290;2023-02-03T15:21:59;7.20;4.30
429;DHT22;201;48.758;9.290;2023-02-03T15:24:24;7.20;4.70
429;DHT22;201;48.758;9.290;2023-02-03T15:26:52;7.20;5.20
429;DHT22;201;48.758;9.290;2023-02-03T15:29:32;7.10;5.30
429;DHT22;201;48.758;9.290;2023-02-03T15:32:20;7.10;6.00
429;DHT22;201;48.758;9.290;2023-02-03T15:34:49;7.10;6.00
429;DHT22;201;48.758;9.290;2023-02-03T15:37:28;7.00;5.90
429;DHT22;201;48.758;9.290;2023-02-03T15:42:55;7.00;6.50
429;DHT22;201;48.758;9.290;2023-02-03T15:45:43;6.90;6.20
429;DHT22;201;48.758;9.290;2023-02-03T15:48:35;7.00;6.60
429;DHT22;201;48.758;9.290;2023-02-03T15:51:13;6.90;6.90
429;DHT22;201;48.758;9.290;2023-02-03T15:56:27;6.90;7.00
429;DHT22;201;48.758;9.290;2023-02-03T15:58:55;7.00;7.70
429;DHT22;201;48.758;9.290;2023-02-03T16:01:23;6.90;7.20
429;DHT22;201;48.758;9.290;2023-02-03T16:03:53;6.90;7.10
429;DHT22;201;48.758;9.290;2023-02-03T16:06:33;6.90;7.30
429;DHT22;201;48.758;9.290;2023-02-03T16:09:03;6.90;7.50
429;DHT22;201;48.758;9.290;2023-02-03T16:11:34;6.90;7.50
429;DHT22;201;48.758;9.290;2023-02-03T16:14:10;6.90;7.80
429;DHT22;201;48.758;9.290;2023-02-03T16:16:40;6.90;8.70
429;DHT22;201;48.758;9.290;2023-02-03T16:19:15;6.80;8.10
429;DHT22;201;48.758;9.290;2023-02-03T16:24:38;6.90;8.20
429;DHT22;201;48.758;9.290;2023-02-03T16:29:49;6.80;9.00
429;DHT22;201;48.758;9.290;2023-02-03T16:32:33;6.70;9.40
429;DHT22;201;48.758;9.290;2023-02-03T16:35:18;6.80;9.90
429;DHT22;201;48.758;9.290;2023-02-03T16:38:07;6.70;10.10
429;DHT22;201;48.758;9.290;2023-02-03T16:40:55;6.70;10.20
429;DHT22;201;48.758;9.290;2023-02-03T16:43:39;6.60;10.40
429;DHT22;201;48.758;9.290;2023-02-03T16:46:23;6.60;10.70
429;DHT22;201;48.758;9.290;2023-02-03T16:49:07;6.60;10.90
429;DHT22;201;48.758;9.290;2023-02-03T16:51:51;6.50;11.30
429;DHT22;201;48.758;9.290;2023-02-03T16:54:17;6.60;11.30
429;DHT22;201;48.758;9.290;2023-02-03T16:56:42;6.60;11.50
429;DHT22;201;48.758;9.290;2023-02-03T16:59:08;6.60;11.60
429;DHT22;201;48.758;9.290;2023-02-03T17:01:34;6.60;11.40
429;DHT22;201;48.758;9.290;2023-02-03T17:04:00;6.60;11.20
429;DHT22;201;48.758;9.290;2023-02-03T17:06:26;6.60;11.30
429;DHT22;201;48.758;9.290;2023-02-03T17:08:52;6.70;11.20
429;DHT22;201;48.758;9.290;2023-02-03T17:11:19;6.80;11.10
429;DHT22;201;48.758;9.290;2023-02-03T17:13:46;6.80;11.10
429;DHT22;201;48.758;9.290;2023-02-03T17:16:14;6.80;10.80
429;DHT22;201;48.758;9.290;2023-02-03T17:18:41;6.80;10.80
429;DHT22;201;48.758;9.290;2023-02-03T17:21:10;6.90;10.80
429;DHT22;201;48.758;9.290;2023-02-03T17:23:36;6.90;10.60
429;DHT22;201;48.758;9.290;2023-02-03T17:26:03;6.90;10.40
429;DHT22;201;48.758;9.290;2023-02-03T17:28:29;6.90;10.30
429;DHT22;201;48.758;9.290;2023-02-03T17:31:00;7.00;10.40
429;DHT22;201;48.758;9.290;2023-02-03T17:33:27;6.90;10.20
429;DHT22;201;48.758;9.290;2023-02-03T17:38:37;6.90;11.10
429;DHT22;201;48.758;9.290;2023-02-03T17:41:22;6.90;10.10
429;DHT22;201;48.758;9.290;2023-02-03T17:43:48;6.90;10.10
429;DHT22;201;48.758;9.290;2023-02-03T17:46:19;6.90;9.80
429;DHT22;201;48.758;9.290;2023-02-03T17:48:46;6.90;9.80
429;DHT22;201;48.758;9.290;2023-02-03T17:51:20;7.00;9.90
429;DHT22;201;48.758;9.290;2023-02-03T17:53:47;7.00;9.70
429;DHT22;201;48.758;9.290;2023-02-03T17:56:19;6.90;9.30
429;DHT22;201;48.758;9.290;2023-02-03T17:58:45;6.90;9.40
429;DHT22;201;48.758;9.290;2023-02-03T18:01:16;7.00;9.10
429;DHT22;201;48.758;9.290;2023-02-03T18:03:43;7.00;9.30
429;DHT22;201;48.758;9.290;2023-02-03T18:06:09;7.00;9.00
429;DHT22;201;48.758;9.290;2023-02-03T18:08:35;7.10;8.90
429;DHT22;201;48.758;9.290;2023-02-03T18:11:01;7.10;8.90
429;DHT22;201;48.758;9.290;2023-02-03T18:13:27;7.10;8.50
429;DHT22;201;48.758;9.290;2023-02-03T18:15:56;7.10;8.60
429;DHT22;201;48.758;9.290;2023-02-03T18:18:21;7.10;8.70
429;DHT22;201;48.758;9.290;2023-02-03T18:20:47;7.10;8.60
429;DHT22;201;48.758;9.290;2023-02-03T18:23:13;7.10;8.50
429;DHT22;201;48.758;9.290;2023-02-03T18:25:39;7.10;8.30
429;DHT22;201;48.758;9.290;2023-02-03T18:28:04;7.10;8.30
429;DHT22;201;48.758;9.290;2023-02-03T18:30:30;7.20;8.40
429;DHT22;201;48.758;9.290;2023-02-03T18:32:56;7.10;8.30
429;DHT22;201;48.758;9.290;2023-02-03T18:35:24;7.20;8.40
429;DHT22;201;48.758;9.290;2023-02-03T18:37:49;7.20;8.40
429;DHT22;201;48.758;9.290;2023-02-03T18:40:16;7.20;8.40
429;DHT22;201;48.758;9.290;2023-02-03T18:42:41;7.10;8.30
429;DHT22;201;48.758;9.290;2023-02-03T18:45:07;7.20;8.40
429;DHT22;201;48.758;9.290;2023-02-03T18:47:33;7.10;8.60
429;DHT22;201;48.758;9.290;2023-02-03T18:49:59;7.20;9.00
429;DHT22;201;48.758;9.290;2023-02-03T18:52:25;7.20;9.20
429;DHT22;201;48.758;9.290;2023-02-03T18:54:50;7.20;9.20
429;DHT22;201;48.758;9.290;2023-02-03T18:57:16;7.20;9.50
429;DHT22;201;48.758;9.290;2023-02-03T18:59:41;7.20;9.90
429;DHT22;201;48.758;9.290;2023-02-03T19:02:09;7.30;9.70
429;DHT22;201;48.758;9.290;2023-02-03T19:04:35;7.30;9.60
429;DHT22;201;48.758;9.290;2023-02-03T19:07:00;7.20;9.80
429;DHT22;201;48.758;9.290;2023-02-03T19:09:26;7.20;9.90
429;DHT22;201;48.758;9.290;2023-02-03T19:11:51;7.20;10.20
429;DHT22;201;48.758;9.290;2023-02-03T19:14:17;7.20;10.20
429;DHT22;201;48.758;9.290;2023-02-03T19:16:43;7.20;10.50
429;DHT22;201;48.758;9.290;2023-02-03T19:19:11;7.20;10.20
429;DHT22;201;48.758;9.290;2023-02-03T19:21:37;7.20;10.30
429;DHT22;201;48.758;9.290;2023-02-03T19:24:03;7.30;10.40